createdAt,value
2023-01-11T00:00:23.136Z,19.98
2023-01-11T00:02:58.833Z,22.05
2023-01-11T00:05:26.209Z,22.73
2023-01-11T00:07:53.053Z,20.80
2023-01-11T00:10:20.913Z,22.27
2023-01-11T00:12:49.027Z,24.63
2023-01-11T00:15:16.760Z,20.25
2023-01-11T00:17:43.471Z,21.55
2023-01-11T00:20:11.078Z,22.55
2023-01-11T00:22:38.086Z,21.27
2023-01-11T00:25:05.757Z,21.25
2023-01-11T00:27:37.758Z,20.25
2023-01-11T00:30:05.763Z,22.30
2023-01-11T00:32:32.494Z,22.98
2023-01-11T00:34:59.271Z,21.77
2023-01-11T00:37:26.008Z,23.20
2023-01-11T00:39:52.689Z,21.17
2023-01-11T00:42:37.877Z,24.20
2023-01-11T00:45:24.119Z,24.27
2023-01-11T00:48:04.827Z,23.48
2023-01-11T00:50:35.782Z,23.50
2023-01-11T00:53:03.181Z,24.00
2023-01-11T00:55:31.927Z,21.85
2023-01-11T00:57:59.259Z,21.38
2023-01-11T01:00:28.280Z,22.30
2023-01-11T01:02:55.188Z,21.52
2023-01-11T01:05:22.048Z,20.30
2023-01-11T01:07:48.713Z,21.27
2023-01-11T01:10:17.196Z,20.92
2023-01-11T01:13:02.900Z,20.63
2023-01-11T01:15:29.695Z,20.02
2023-01-11T01:17:56.439Z,23.63
2023-01-11T01:20:24.606Z,21.85
2023-01-11T01:22:51.375Z,21.17
2023-01-11T01:25:19.150Z,20.88
2023-01-11T01:27:45.985Z,20.17
2023-01-11T01:30:13.036Z,25.33
2023-01-11T01:32:40.333Z,21.95
2023-01-11T01:35:07.563Z,22.83
2023-01-11T01:37:34.511Z,20.98
2023-01-11T01:40:04.526Z,22.27
2023-01-11T01:42:35.432Z,24.13
2023-01-11T01:45:20.064Z,20.73
2023-01-11T01:48:01.156Z,22.52
2023-01-11T01:50:44.530Z,21.45
2023-01-11T01:53:20.810Z,20.77
2023-01-11T01:55:57.742Z,21.10
2023-01-11T01:58:33.126Z,20.15
2023-01-11T02:01:22.678Z,21.88
2023-01-11T02:03:52.357Z,17.13
2023-01-11T02:06:22.693Z,20.83
2023-01-11T02:09:00.322Z,23.33
2023-01-11T02:11:30.701Z,20.70
2023-01-11T02:14:03.255Z,21.92
2023-01-11T02:16:30.397Z,19.85
2023-01-11T02:18:58.390Z,19.95
2023-01-11T02:21:58.890Z,20.20
2023-01-11T02:24:38.113Z,19.80
2023-01-11T02:27:25.333Z,22.80
2023-01-11T02:30:27.126Z,21.60
2023-01-11T02:33:24.437Z,22.17
2023-01-11T02:36:06.507Z,23.02
2023-01-11T02:38:48.772Z,22.15
2023-01-11T02:41:49.051Z,21.63
2023-01-11T02:44:46.009Z,21.13
2023-01-11T02:47:22.879Z,23.27
2023-01-11T02:49:57.039Z,20.83
2023-01-11T02:52:42.870Z,24.30
2023-01-11T02:55:13.080Z,22.33
2023-01-11T02:57:42.739Z,18.45
2023-01-11T03:00:11.525Z,20.35
2023-01-11T03:02:38.360Z,22.00
2023-01-11T03:05:14.976Z,20.48
2023-01-11T03:08:00.315Z,21.08
2023-01-11T03:10:56.210Z,20.90
2023-01-11T03:13:55.150Z,20.45
2023-01-11T03:16:27.667Z,21.83
2023-01-11T03:19:06.370Z,21.27
2023-01-11T03:21:54.634Z,21.60
2023-01-11T03:24:34.303Z,21.92
2023-01-11T03:27:13.094Z,23.08
2023-01-11T03:29:46.028Z,21.55
2023-01-11T03:32:52.047Z,22.10
2023-01-11T03:35:29.412Z,21.63
2023-01-11T03:38:03.526Z,26.63
2023-01-11T03:40:35.275Z,19.40
2023-01-11T03:43:12.845Z,26.20
2023-01-11T03:46:04.054Z,20.88
2023-01-11T03:48:47.606Z,23.13
2023-01-11T03:51:21.098Z,21.10
2023-01-11T03:53:50.244Z,22.00
2023-01-11T03:56:23.002Z,21.17
2023-01-11T03:58:49.779Z,20.27
2023-01-11T04:01:16.924Z,20.35
2023-01-11T04:03:43.635Z,19.88
2023-01-11T04:06:11.796Z,20.98
2023-01-11T04:08:38.467Z,22.30
2023-01-11T04:11:05.491Z,23.20
2023-01-11T04:13:34.051Z,22.90
2023-01-11T04:16:01.016Z,20.58
2023-01-11T04:18:28.039Z,20.92
2023-01-11T04:20:54.888Z,20.38
2023-01-11T04:23:21.541Z,20.85
2023-01-11T04:25:48.306Z,21.90
2023-01-11T04:28:15.226Z,20.80
2023-01-11T04:30:44.281Z,17.67
2023-01-11T04:33:13.236Z,23.10
2023-01-11T04:35:40.100Z,25.13
2023-01-11T04:38:06.795Z,25.27
2023-01-11T04:40:33.448Z,20.55
2023-01-11T04:43:02.238Z,24.17
2023-01-11T04:45:30.393Z,21.58
2023-01-11T04:47:58.136Z,26.10
2023-01-11T04:50:26.638Z,25.10
2023-01-11T04:52:53.795Z,20.13
2023-01-11T04:55:20.836Z,20.80
2023-01-11T04:57:47.583Z,20.10
2023-01-11T05:00:15.974Z,24.23
2023-01-11T05:02:42.796Z,22.52
2023-01-11T05:05:11.448Z,23.30
2023-01-11T05:07:39.237Z,21.05
2023-01-11T05:10:06.820Z,21.13
2023-01-11T05:12:33.462Z,21.60
2023-01-11T05:15:00.104Z,20.42
2023-01-11T05:17:26.752Z,18.38
2023-01-11T05:19:53.382Z,22.80
2023-01-11T05:22:20.014Z,22.75
2023-01-11T05:24:46.685Z,23.30
2023-01-11T05:27:13.369Z,21.98
2023-01-11T05:29:43.810Z,21.05
2023-01-11T05:32:12.130Z,19.77
2023-01-11T05:34:38.774Z,19.90
2023-01-11T05:37:07.357Z,21.10
2023-01-11T05:40:03.854Z,16.88
2023-01-11T05:42:31.741Z,19.52
2023-01-11T05:45:16.863Z,17.23
2023-01-11T05:47:43.609Z,20.02
2023-01-11T05:50:10.778Z,19.63
2023-01-11T05:52:37.430Z,18.50
2023-01-11T05:55:04.666Z,19.52
2023-01-11T05:57:31.288Z,19.80
2023-01-11T05:59:57.969Z,21.45
2023-01-11T06:02:24.765Z,24.83
2023-01-11T06:04:51.480Z,20.83
2023-01-11T06:07:18.209Z,20.65
2023-01-11T06:09:44.872Z,25.70
2023-01-11T06:12:11.643Z,23.90
2023-01-11T06:14:38.420Z,23.23
2023-01-11T06:17:05.092Z,22.95
2023-01-11T06:19:31.698Z,19.88
2023-01-11T06:21:58.429Z,19.67
2023-01-11T06:24:25.128Z,27.15
2023-01-11T06:26:55.002Z,21.40
2023-01-11T06:29:21.888Z,21.20
2023-01-11T06:31:48.671Z,18.70
2023-01-11T06:34:15.282Z,19.92
2023-01-11T06:36:42.160Z,17.92
2023-01-11T06:39:10.695Z,22.23
2023-01-11T06:41:37.381Z,20.02
2023-01-11T06:44:04.159Z,18.90
2023-01-11T06:46:32.207Z,21.90
2023-01-11T06:48:59.062Z,18.45
2023-01-11T06:51:29.769Z,16.85
2023-01-11T06:53:56.443Z,18.73
2023-01-11T06:56:23.607Z,22.67
2023-01-11T06:58:50.821Z,20.65
2023-01-11T07:01:18.510Z,18.63
2023-01-11T07:03:45.866Z,20.05
2023-01-11T07:06:14.648Z,18.27
2023-01-11T07:08:42.610Z,24.08
2023-01-11T07:11:10.298Z,25.50
2023-01-11T07:13:36.964Z,26.65
2023-01-11T07:16:03.882Z,24.90
2023-01-11T07:18:31.768Z,26.55
2023-01-11T07:20:58.490Z,22.60
2023-01-11T07:23:25.161Z,21.38
2023-01-11T07:25:51.905Z,18.58
2023-01-11T07:28:18.701Z,24.35
2023-01-11T07:30:57.762Z,19.13
2023-01-11T07:33:26.159Z,23.98
2023-01-11T07:35:53.556Z,18.75
2023-01-11T07:38:20.269Z,20.77
2023-01-11T07:40:47.107Z,18.77
2023-01-11T07:43:14.915Z,21.35
2023-01-11T07:45:50.770Z,18.60
2023-01-11T07:48:24.859Z,21.25
2023-01-11T07:50:52.661Z,21.20
2023-01-11T07:53:19.635Z,17.88
2023-01-11T07:55:47.103Z,19.35
2023-01-11T07:58:17.101Z,19.30
2023-01-11T08:00:45.971Z,20.50
2023-01-11T08:03:13.128Z,22.90
2023-01-11T08:05:40.624Z,18.00
2023-01-11T08:08:08.254Z,19.67
2023-01-11T08:10:35.689Z,20.17
2023-01-11T08:13:21.011Z,21.50
2023-01-11T08:15:47.735Z,20.65
2023-01-11T08:18:14.423Z,19.98
2023-01-11T08:20:41.397Z,22.90
2023-01-11T08:23:10.201Z,18.33
2023-01-11T08:25:37.434Z,21.70
2023-01-11T08:28:06.989Z,18.08
2023-01-11T08:30:34.957Z,18.60
2023-01-11T08:33:02.747Z,22.13
2023-01-11T08:35:30.554Z,18.35
2023-01-11T08:37:57.283Z,24.40
2023-01-11T08:40:25.535Z,19.05
2023-01-11T08:42:56.956Z,19.38
2023-01-11T08:45:24.583Z,21.13
2023-01-11T08:47:52.446Z,18.83
2023-01-11T08:50:21.231Z,23.63
2023-01-11T08:52:50.895Z,20.50
2023-01-11T08:55:18.076Z,20.23
2023-01-11T08:57:45.875Z,18.77
2023-01-11T09:00:13.927Z,20.08
2023-01-11T09:02:40.814Z,19.45
2023-01-11T09:05:08.125Z,18.58
2023-01-11T09:07:34.843Z,20.45
2023-01-11T09:10:01.602Z,18.73
2023-01-11T09:12:28.548Z,19.00
2023-01-11T09:14:55.216Z,19.25
2023-01-11T09:17:21.917Z,27.00
2023-01-11T09:19:48.559Z,17.35
2023-01-11T09:22:15.460Z,22.58
2023-01-11T09:24:42.106Z,19.35
2023-01-11T09:27:09.065Z,18.83
2023-01-11T09:29:37.403Z,18.20
2023-01-11T09:32:05.044Z,21.52
2023-01-11T09:34:31.970Z,19.65
2023-01-11T09:37:00.792Z,21.35
2023-01-11T09:39:28.741Z,17.77
2023-01-11T09:42:31.509Z,17.20
2023-01-11T09:45:21.576Z,18.52
2023-01-11T09:48:04.867Z,22.00
2023-01-11T09:50:41.711Z,20.02
2023-01-11T09:53:32.489Z,21.02
2023-01-11T09:56:02.404Z,20.02
2023-01-11T09:59:15.036Z,20.95
2023-01-11T10:02:10.037Z,20.13
2023-01-11T10:05:09.663Z,22.52
2023-01-11T10:07:49.715Z,19.17
2023-01-11T10:18:26.283Z,21.35
2023-01-11T10:19:39.564Z,19.13
2023-01-11T10:22:19.617Z,23.08
2023-01-11T10:24:59.124Z,24.05
2023-01-11T10:27:40.730Z,19.85
2023-01-11T10:30:46.468Z,21.73
2023-01-11T10:33:38.182Z,20.80
2023-01-11T10:36:27.153Z,19.75
2023-01-11T10:39:23.505Z,19.95
2023-01-11T10:42:05.712Z,20.45
2023-01-11T10:44:48.626Z,21.05
2023-01-11T10:47:22.285Z,22.02
2023-01-11T10:49:59.583Z,21.35
2023-01-11T10:52:51.980Z,19.35
2023-01-11T10:55:43.140Z,22.52
2023-01-11T10:58:18.755Z,19.15
2023-01-11T11:01:00.935Z,20.85
2023-01-11T11:04:32.931Z,20.40
2023-01-11T11:07:40.770Z,22.55
2023-01-11T11:10:56.573Z,21.35
2023-01-11T11:13:32.110Z,21.90
2023-01-11T11:16:14.033Z,21.80
2023-01-11T11:18:43.436Z,22.58
2023-01-11T11:21:29.509Z,21.52
2023-01-11T11:24:13.476Z,20.38
2023-01-11T11:26:46.871Z,22.57
2023-01-11T11:29:23.074Z,23.20
2023-01-11T11:31:51.273Z,20.80
2023-01-11T11:34:21.207Z,21.83
2023-01-11T11:36:52.364Z,21.40
2023-01-11T11:39:29.597Z,20.92
2023-01-11T11:42:08.367Z,20.95
2023-01-11T11:44:35.468Z,22.08
2023-01-11T11:47:16.998Z,20.67
2023-01-11T11:49:43.836Z,21.83
2023-01-11T11:52:17.468Z,19.17
2023-01-11T11:54:57.055Z,18.45
2023-01-11T11:57:31.174Z,16.27
2023-01-11T12:00:19.236Z,17.30
2023-01-11T12:02:58.609Z,18.25
2023-01-11T12:05:25.459Z,20.52
2023-01-11T12:07:55.430Z,19.75
2023-01-11T12:10:28.677Z,19.02
2023-01-11T12:13:01.849Z,17.85
2023-01-11T12:15:31.086Z,18.58
2023-01-11T12:18:32.790Z,21.02
2023-01-11T12:21:32.537Z,22.10
2023-01-11T12:24:19.547Z,23.55
2023-01-11T12:27:43.815Z,21.15
2023-01-11T12:30:33.230Z,19.98
2023-01-11T12:33:15.165Z,19.42
2023-01-11T12:36:03.181Z,20.75
2023-01-11T12:39:05.053Z,21.85
2023-01-11T12:42:38.806Z,22.60
2023-01-11T12:45:37.891Z,22.27
2023-01-11T12:48:40.653Z,22.95
2023-01-11T12:51:41.318Z,22.38
2023-01-11T12:54:29.642Z,21.35
2023-01-11T12:57:05.104Z,23.88
2023-01-11T13:00:07.813Z,24.27
2023-01-11T13:03:18.983Z,25.10
2023-01-11T13:06:06.856Z,25.70
2023-01-11T13:09:04.019Z,24.63
2023-01-11T13:11:45.943Z,24.02
2023-01-11T13:14:53.256Z,28.30
2023-01-11T13:17:46.447Z,23.25
2023-01-11T13:20:59.257Z,25.98
2023-01-11T13:23:42.760Z,23.10
2023-01-11T13:26:36.356Z,26.10
2023-01-11T13:29:54.205Z,26.85
2023-01-11T13:32:30.271Z,26.58
2023-01-11T13:35:18.481Z,23.17
2023-01-11T13:38:05.594Z,24.63
2023-01-11T13:40:39.934Z,23.75
2023-01-11T13:43:30.262Z,25.67
2023-01-11T13:46:12.321Z,27.17
2023-01-11T13:48:53.480Z,24.50
2023-01-11T13:51:45.262Z,24.73
2023-01-11T13:59:35.876Z,23.93
2023-01-11T14:02:14.263Z,25.77
2023-01-11T14:04:45.712Z,31.23
2023-01-11T14:07:37.499Z,26.63
2023-01-11T14:10:31.435Z,24.33
2023-01-11T14:13:45.006Z,23.75
2023-01-11T14:19:10.588Z,26.13
2023-01-11T14:22:34.951Z,22.30
2023-01-11T14:25:13.711Z,25.00
2023-01-11T14:28:10.271Z,21.08
2023-01-11T14:31:04.900Z,20.30
2023-01-11T14:36:34.704Z,28.58
2023-01-11T14:39:47.725Z,24.83
2023-01-11T14:43:01.890Z,30.13
2023-01-11T14:46:14.411Z,32.78
2023-01-11T14:49:16.337Z,27.35
2023-01-11T14:52:03.195Z,26.42
2023-01-11T14:54:44.173Z,27.10
2023-01-11T14:57:55.000Z,22.38
2023-01-11T15:00:21.635Z,26.85
2023-01-11T15:03:18.243Z,28.85
2023-01-11T15:06:23.833Z,27.10
2023-01-11T15:08:54.883Z,26.63
2023-01-11T15:11:40.777Z,29.23
2023-01-11T15:14:32.873Z,27.75
2023-01-11T15:17:20.972Z,30.83
2023-01-11T15:19:49.381Z,25.55
2023-01-11T15:22:28.422Z,23.95
2023-01-11T15:25:00.374Z,28.00
2023-01-11T15:27:39.642Z,26.88
2023-01-11T15:30:31.263Z,26.25
2023-01-11T15:33:16.979Z,25.98
2023-01-11T15:35:55.818Z,29.60
2023-01-11T15:38:32.840Z,24.23
2023-01-11T15:41:22.985Z,26.88
2023-01-11T15:44:23.039Z,24.85
2023-01-11T15:47:05.571Z,34.22
2023-01-11T15:50:19.089Z,28.80
2023-01-11T15:53:17.171Z,28.15
2023-01-11T15:56:37.254Z,29.20
2023-01-11T15:59:40.720Z,29.25
2023-01-11T16:02:13.389Z,27.10
2023-01-11T16:04:50.232Z,28.85
2023-01-11T16:07:50.535Z,28.13
2023-01-11T16:10:46.460Z,34.55
2023-01-11T16:13:36.933Z,28.98
2023-01-11T16:16:29.323Z,29.50
2023-01-11T16:19:08.030Z,28.08
2023-01-11T16:21:39.197Z,26.17
2023-01-11T16:24:09.363Z,26.50
2023-01-11T16:26:37.892Z,29.83
2023-01-11T16:29:19.945Z,29.73
2023-01-11T16:32:17.189Z,25.35
2023-01-11T16:34:47.044Z,28.90
2023-01-11T16:37:30.008Z,27.98
2023-01-11T16:40:16.856Z,27.73
2023-01-11T16:43:02.987Z,28.63
2023-01-11T16:45:45.562Z,26.35
2023-01-11T16:48:41.701Z,22.27
2023-01-11T16:51:14.129Z,25.60
2023-01-11T16:53:43.951Z,25.67
2023-01-11T16:56:18.818Z,25.92
2023-01-11T16:59:14.265Z,28.52
2023-01-11T17:02:06.049Z,25.63
2023-01-11T17:04:34.958Z,30.45
2023-01-11T17:07:23.905Z,30.42
2023-01-11T17:09:51.171Z,27.25
2023-01-11T17:12:25.074Z,28.48
2023-01-11T17:14:54.824Z,26.85
2023-01-11T17:17:21.890Z,28.33
2023-01-11T17:19:50.873Z,28.75
2023-01-11T17:22:21.981Z,27.58
2023-01-11T17:24:52.781Z,28.15
2023-01-11T17:27:41.476Z,26.30
2023-01-11T17:30:22.408Z,28.13
2023-01-11T17:32:52.823Z,30.02
2023-01-11T17:35:44.044Z,28.45
2023-01-11T17:38:21.538Z,24.48
2023-01-11T17:40:48.892Z,27.38
2023-01-11T17:43:46.220Z,29.13
2023-01-11T17:46:21.379Z,28.48
2023-01-11T17:48:57.764Z,28.73
2023-01-11T17:51:27.353Z,26.00
2023-01-11T17:53:54.368Z,28.05
2023-01-11T17:56:34.374Z,25.65
2023-01-11T17:59:24.233Z,28.50
2023-01-11T18:02:08.651Z,26.95
2023-01-11T18:04:35.444Z,27.83
2023-01-11T18:07:17.359Z,26.35
2023-01-11T18:09:50.269Z,27.40
2023-01-11T18:12:30.463Z,31.10
2023-01-11T18:15:00.630Z,35.83
2023-01-11T18:17:36.359Z,33.83
2023-01-11T18:20:29.314Z,33.08
2023-01-11T18:23:05.057Z,35.22
2023-01-11T18:25:35.028Z,32.00
2023-01-11T18:28:30.305Z,32.33
2023-01-11T18:31:01.604Z,31.73
2023-01-11T18:33:33.112Z,31.20
2023-01-11T18:36:03.411Z,31.17
2023-01-11T18:38:35.760Z,34.50
2023-01-11T18:41:28.689Z,32.47
2023-01-11T18:43:55.926Z,37.50
2023-01-11T18:46:22.743Z,29.88
2023-01-11T18:48:49.536Z,31.15
2023-01-11T18:51:28.351Z,32.13
2023-01-11T18:53:55.044Z,33.17
2023-01-11T18:56:21.675Z,26.55
2023-01-11T18:58:48.391Z,29.98
2023-01-11T19:01:15.198Z,39.45
2023-01-11T19:03:43.753Z,30.48
2023-01-11T19:06:13.400Z,32.22
2023-01-11T19:08:40.202Z,34.85
2023-01-11T19:11:06.857Z,32.10
2023-01-11T19:13:33.548Z,32.67
2023-01-11T19:16:01.657Z,33.95
2023-01-11T19:18:29.336Z,32.83
2023-01-11T19:21:02.691Z,32.05
2023-01-11T19:23:29.692Z,31.30
2023-01-11T19:25:58.201Z,32.42
2023-01-11T19:28:24.922Z,31.30
2023-01-11T19:30:51.602Z,34.22
2023-01-11T19:33:19.423Z,28.88
2023-01-11T19:35:49.275Z,32.80
2023-01-11T19:38:18.346Z,31.80
2023-01-11T19:40:46.901Z,30.73
2023-01-11T19:43:15.288Z,32.78
2023-01-11T19:45:42.056Z,31.70
2023-01-11T19:48:08.787Z,31.27
2023-01-11T19:50:35.460Z,32.88
2023-01-11T19:53:02.117Z,33.92
2023-01-11T19:55:28.831Z,32.08
2023-01-11T19:57:55.520Z,31.00
2023-01-11T20:00:22.299Z,32.42
2023-01-11T20:02:49.055Z,29.92
2023-01-11T20:05:15.819Z,28.58
2023-01-11T20:07:42.524Z,31.77
2023-01-11T20:10:09.952Z,32.58
2023-01-11T20:12:36.676Z,33.47
2023-01-11T20:15:03.646Z,35.22
2023-01-11T20:17:30.523Z,31.73
2023-01-11T20:19:57.425Z,30.38
2023-01-11T20:22:24.781Z,31.38
2023-01-11T20:24:51.574Z,29.33
2023-01-11T20:27:18.807Z,32.90
2023-01-11T20:29:45.768Z,24.45
2023-01-11T20:32:34.911Z,25.60
2023-01-11T20:34:59.308Z,24.60
2023-01-11T20:37:25.988Z,25.42
2023-01-11T20:39:52.726Z,28.55
2023-01-11T20:42:19.493Z,29.27
2023-01-11T20:44:46.327Z,28.30
2023-01-11T20:47:13.159Z,29.23
2023-01-11T20:49:40.317Z,26.70
2023-01-11T20:52:07.125Z,36.65
2023-01-11T20:54:33.875Z,28.65
2023-01-11T20:57:05.383Z,25.33
2023-01-11T20:59:32.365Z,26.08
2023-01-11T21:01:59.443Z,28.25
2023-01-11T21:04:26.229Z,29.27
2023-01-11T21:06:52.988Z,26.90
2023-01-11T21:09:19.780Z,25.60
2023-01-11T21:11:53.094Z,28.70
2023-01-11T21:14:23.383Z,30.35
2023-01-11T21:16:50.151Z,24.90
2023-01-11T21:19:17.302Z,27.05
2023-01-11T21:21:44.666Z,27.27
2023-01-11T21:24:14.738Z,26.38
2023-01-11T21:26:43.436Z,28.50
2023-01-11T21:29:11.790Z,27.77
2023-01-11T21:31:39.709Z,28.27
2023-01-11T21:34:06.957Z,31.48
2023-01-11T21:36:34.504Z,27.33
2023-01-11T21:39:02.595Z,27.67
2023-01-11T21:41:50.747Z,25.10
2023-01-11T21:44:19.377Z,25.13
2023-01-11T21:46:46.766Z,27.65
2023-01-11T21:49:14.377Z,25.00
2023-01-11T21:51:42.246Z,25.25
2023-01-11T21:54:12.546Z,28.52
2023-01-11T21:56:41.577Z,25.33
2023-01-11T21:59:08.590Z,26.75
2023-01-11T22:01:35.597Z,26.02
2023-01-11T22:04:11.629Z,27.60
2023-01-11T22:06:41.625Z,25.17
2023-01-11T22:09:10.982Z,30.02
2023-01-11T22:11:38.346Z,27.52
2023-01-11T22:14:06.548Z,26.83
2023-01-11T22:16:34.342Z,28.48
2023-01-11T22:19:01.826Z,27.20
2023-01-11T22:21:29.166Z,28.92
2023-01-11T22:23:58.578Z,27.85
2023-01-11T22:26:27.775Z,25.60
2023-01-11T22:29:14.700Z,29.08
2023-01-11T22:31:52.497Z,25.55
2023-01-11T22:34:19.662Z,25.83
2023-01-11T22:36:46.641Z,29.40
2023-01-11T22:39:15.660Z,25.52
2023-01-11T22:41:45.352Z,27.58
2023-01-11T22:44:12.646Z,28.55
2023-01-11T22:46:40.013Z,27.20
2023-01-11T22:49:07.903Z,28.52
2023-01-11T22:51:35.810Z,27.55
2023-01-11T22:54:03.448Z,27.67
2023-01-11T22:56:30.477Z,25.85
2023-01-11T22:58:57.937Z,27.80
2023-01-11T23:01:36.698Z,25.30
2023-01-11T23:04:04.702Z,26.20
2023-01-11T23:06:36.031Z,26.52
2023-01-11T23:09:04.278Z,25.63
2023-01-11T23:11:55.381Z,26.10
2023-01-11T23:14:22.236Z,27.30
2023-01-11T23:16:50.305Z,26.15
2023-01-11T23:19:19.873Z,27.08
2023-01-11T23:21:48.053Z,25.63
2023-01-11T23:24:16.807Z,25.63
2023-01-11T23:26:44.421Z,25.83
2023-01-11T23:29:11.957Z,24.50
2023-01-11T23:31:38.823Z,28.10
2023-01-11T23:34:08.284Z,30.00
2023-01-11T23:36:38.784Z,29.40
2023-01-11T23:39:09.932Z,31.45
2023-01-11T23:41:55.105Z,28.13
2023-01-11T23:44:22.703Z,25.90
2023-01-11T23:47:09.331Z,26.55
2023-01-11T23:49:36.758Z,27.95
2023-01-11T23:52:04.035Z,25.33
2023-01-11T23:54:33.300Z,27.50
2023-01-11T23:57:02.513Z,25.83
2023-01-11T23:59:29.483Z,25.33
